sensor_id;sensor_type;location;lat;lon;timestamp;temperature;humidity
816;DHT22;25928;51.062;13.752;2022-12-31T00:00:38;11.50;1.00
816;DHT22;25928;51.062;13.752;2022-12-31T00:03:05;11.40;1.00
816;DHT22;25928;51.062;13.752;2022-12-31T00:05:32;11.50;1.00
816;DHT22;25928;51.062;13.752;2022-12-31T00:07:58;11.60;1.00
816;DHT22;25928;51.062;13.752;2022-12-31T00:10:24;11.60;1.00
816;DHT22;25928;51.062;13.752;2022-12-31T00:12:50;11.70;1.00
816;DHT22;25928;51.062;13.752;2022-12-31T00:15:16;11.70;1.00
816;DHT22;25928;51.062;13.752;2022-12-31T00:17:41;11.80;1.00
816;DHT22;25928;51.062;13.752;2022-12-31T00:20:07;11.90;1.00
816;DHT22;25928;51.062;13.752;2022-12-31T00:22:33;11.90;1.00
816;DHT22;25928;51.062;13.752;2022-12-31T00:24:59;12.00;1.00
816;DHT22;25928;51.062;13.752;2022-12-31T00:27:25;11.90;1.00
816;DHT22;25928;51.062;13.752;2022-12-31T00:29:50;12.00;1.00
816;DHT22;25928;51.062;13.752;2022-12-31T00:32:16;12.00;1.00
816;DHT22;25928;51.062;13.752;2022-12-31T00:34:41;12.10;1.00
816;DHT22;25928;51.062;13.752;2022-12-31T00:37:07;12.20;1.00
816;DHT22;25928;51.062;13.752;2022-12-31T00:39:32;12.30;1.00
816;DHT22;25928;51.062;13.752;2022-12-31T00:41:58;12.20;1.00
816;DHT22;25928;51.062;13.752;2022-12-31T00:44:24;12.40;1.00
816;DHT22;25928;51.062;13.752;2022-12-31T00:46:49;12.30;1.00
816;DHT22;25928;51.062;13.752;2022-12-31T00:49:15;12.10;1.00
816;DHT22;25928;51.062;13.752;2022-12-31T00:51:40;12.20;1.00
816;DHT22;25928;51.062;13.752;2022-12-31T00:54:06;12.40;1.00
816;DHT22;25928;51.062;13.752;2022-12-31T00:56:33;12.50;1.00
816;DHT22;25928;51.062;13.752;2022-12-31T00:58:59;12.40;1.00
816;DHT22;25928;51.062;13.752;2022-12-31T01:01:26;12.30;1.00
816;DHT22;25928;51.062;13.752;2022-12-31T01:03:55;12.20;1.00
816;DHT22;25928;51.062;13.752;2022-12-31T01:06:22;12.20;1.00
816;DHT22;25928;51.062;13.752;2022-12-31T01:08:48;12.10;1.00
816;DHT22;25928;51.062;13.752;2022-12-31T01:11:14;12.20;1.00
816;DHT22;25928;51.062;13.752;2022-12-31T01:13:49;12.10;1.00
816;DHT22;25928;51.062;13.752;2022-12-31T01:16:16;12.10;1.00
816;DHT22;25928;51.062;13.752;2022-12-31T01:18:42;12.00;1.00
816;DHT22;25928;51.062;13.752;2022-12-31T01:21:09;12.10;1.00
816;DHT22;25928;51.062;13.752;2022-12-31T01:23:35;12.10;1.00
816;DHT22;25928;51.062;13.752;2022-12-31T01:26:03;12.00;1.00
816;DHT22;25928;51.062;13.752;2022-12-31T01:28:30;11.90;1.00
816;DHT22;25928;51.062;13.752;2022-12-31T01:30:55;11.90;1.00
816;DHT22;25928;51.062;13.752;2022-12-31T01:33:21;11.90;1.00
816;DHT22;25928;51.062;13.752;2022-12-31T01:35:47;11.80;1.00
816;DHT22;25928;51.062;13.752;2022-12-31T01:38:13;11.60;1.00
816;DHT22;25928;51.062;13.752;2022-12-31T01:40:39;12.00;1.00
816;DHT22;25928;51.062;13.752;2022-12-31T01:43:17;11.90;1.00
816;DHT22;25928;51.062;13.752;2022-12-31T01:45:46;11.90;1.00
816;DHT22;25928;51.062;13.752;2022-12-31T01:48:15;11.80;1.00
816;DHT22;25928;51.062;13.752;2022-12-31T01:50:41;11.70;1.00
816;DHT22;25928;51.062;13.752;2022-12-31T01:53:09;11.80;1.00
816;DHT22;25928;51.062;13.752;2022-12-31T01:58:16;11.70;1.00
816;DHT22;25928;51.062;13.752;2022-12-31T02:00:43;11.90;1.00
816;DHT22;25928;51.062;13.752;2022-12-31T02:03:10;11.90;1.00
816;DHT22;25928;51.062;13.752;2022-12-31T02:05:50;11.80;1.00
816;DHT22;25928;51.062;13.752;2022-12-31T02:08:17;11.70;1.00
816;DHT22;25928;51.062;13.752;2022-12-31T02:10:43;11.80;1.00
816;DHT22;25928;51.062;13.752;2022-12-31T02:13:09;11.80;1.00
816;DHT22;25928;51.062;13.752;2022-12-31T02:24:15;11.80;1.00
816;DHT22;25928;51.062;13.752;2022-12-31T02:27:02;11.80;1.00
816;DHT22;25928;51.062;13.752;2022-12-31T02:32:44;11.90;1.00
816;DHT22;25928;51.062;13.752;2022-12-31T02:35:18;11.90;1.00
816;DHT22;25928;51.062;13.752;2022-12-31T02:37:48;11.80;1.00
816;DHT22;25928;51.062;13.752;2022-12-31T02:40:19;11.90;1.00
816;DHT22;25928;51.062;13.752;2022-12-31T02:42:45;11.90;1.00
816;DHT22;25928;51.062;13.752;2022-12-31T02:45:14;11.90;1.00
816;DHT22;25928;51.062;13.752;2022-12-31T02:56:54;11.90;1.00
816;DHT22;25928;51.062;13.752;2022-12-31T02:59:37;11.90;1.00
816;DHT22;25928;51.062;13.752;2022-12-31T03:02:23;11.90;1.00
816;DHT22;25928;51.062;13.752;2022-12-31T03:04:53;11.90;1.00
816;DHT22;25928;51.062;13.752;2022-12-31T03:07:25;11.80;1.00
816;DHT22;25928;51.062;13.752;2022-12-31T03:09:52;11.80;1.00
816;DHT22;25928;51.062;13.752;2022-12-31T03:12:21;11.70;1.00
816;DHT22;25928;51.062;13.752;2022-12-31T03:15:07;11.70;1.00
816;DHT22;25928;51.062;13.752;2022-12-31T03:17:48;11.80;1.00
816;DHT22;25928;51.062;13.752;2022-12-31T03:20:14;11.80;1.00
816;DHT22;25928;51.062;13.752;2022-12-31T03:22:59;11.90;1.00
816;DHT22;25928;51.062;13.752;2022-12-31T03:25:25;11.80;1.00
816;DHT22;25928;51.062;13.752;2022-12-31T03:28:07;11.90;1.00
816;DHT22;25928;51.062;13.752;2022-12-31T03:30:33;11.90;1.00
816;DHT22;25928;51.062;13.752;2022-12-31T03:33:00;11.90;1.00
816;DHT22;25928;51.062;13.752;2022-12-31T03:35:28;11.90;1.00
816;DHT22;25928;51.062;13.752;2022-12-31T03:37:54;12.00;1.00
816;DHT22;25928;51.062;13.752;2022-12-31T03:40:22;12.00;1.00
816;DHT22;25928;51.062;13.752;2022-12-31T03:42:48;11.90;1.00
816;DHT22;25928;51.062;13.752;2022-12-31T03:45:14;12.00;1.00
816;DHT22;25928;51.062;13.752;2022-12-31T03:47:40;12.00;1.00
816;DHT22;25928;51.062;13.752;2022-12-31T03:50:07;12.00;1.00
816;DHT22;25928;51.062;13.752;2022-12-31T03:52:33;12.00;1.00
816;DHT22;25928;51.062;13.752;2022-12-31T03:54:59;12.00;1.00
816;DHT22;25928;51.062;13.752;2022-12-31T03:57:26;12.00;1.00
816;DHT22;25928;51.062;13.752;2022-12-31T03:59:52;11.90;1.00
816;DHT22;25928;51.062;13.752;2022-12-31T04:02:18;12.10;1.00
816;DHT22;25928;51.062;13.752;2022-12-31T04:04:43;12.10;1.00
816;DHT22;25928;51.062;13.752;2022-12-31T04:07:09;12.10;1.00
816;DHT22;25928;51.062;13.752;2022-12-31T04:09:35;12.10;1.00
816;DHT22;25928;51.062;13.752;2022-12-31T04:12:00;12.20;1.00
816;DHT22;25928;51.062;13.752;2022-12-31T04:14:26;12.20;1.00
816;DHT22;25928;51.062;13.752;2022-12-31T04:16:51;12.10;1.00
816;DHT22;25928;51.062;13.752;2022-12-31T04:19:17;12.20;1.00
816;DHT22;25928;51.062;13.752;2022-12-31T04:21:43;12.20;1.00
816;DHT22;25928;51.062;13.752;2022-12-31T04:24:09;12.20;1.00
816;DHT22;25928;51.062;13.752;2022-12-31T04:26:34;12.30;1.00
816;DHT22;25928;51.062;13.752;2022-12-31T04:29:00;12.30;1.00
816;DHT22;25928;51.062;13.752;2022-12-31T04:31:26;12.40;1.00
816;DHT22;25928;51.062;13.752;2022-12-31T04:33:52;12.40;1.00
816;DHT22;25928;51.062;13.752;2022-12-31T04:36:18;12.40;1.00
816;DHT22;25928;51.062;13.752;2022-12-31T04:38:43;12.40;1.00
816;DHT22;25928;51.062;13.752;2022-12-31T04:41:09;12.40;1.00
816;DHT22;25928;51.062;13.752;2022-12-31T04:43:50;12.40;1.00
816;DHT22;25928;51.062;13.752;2022-12-31T04:46:18;12.50;1.00
816;DHT22;25928;51.062;13.752;2022-12-31T04:48:44;12.50;1.00
816;DHT22;25928;51.062;13.752;2022-12-31T04:51:10;12.40;1.00
816;DHT22;25928;51.062;13.752;2022-12-31T04:53:36;12.40;1.00
816;DHT22;25928;51.062;13.752;2022-12-31T04:56:03;12.40;1.00
816;DHT22;25928;51.062;13.752;2022-12-31T04:58:29;12.60;1.00
816;DHT22;25928;51.062;13.752;2022-12-31T05:00:54;12.60;1.00
816;DHT22;25928;51.062;13.752;2022-12-31T05:03:22;12.60;1.00
816;DHT22;25928;51.062;13.752;2022-12-31T05:05:48;12.60;1.00
816;DHT22;25928;51.062;13.752;2022-12-31T05:08:15;12.60;1.00
816;DHT22;25928;51.062;13.752;2022-12-31T05:10:46;12.80;1.00
816;DHT22;25928;51.062;13.752;2022-12-31T05:13:12;12.80;1.00
816;DHT22;25928;51.062;13.752;2022-12-31T05:15:38;12.80;1.00
816;DHT22;25928;51.062;13.752;2022-12-31T05:18:04;12.80;1.00
816;DHT22;25928;51.062;13.752;2022-12-31T05:20:30;12.80;1.00
816;DHT22;25928;51.062;13.752;2022-12-31T05:22:55;12.80;1.00
816;DHT22;25928;51.062;13.752;2022-12-31T05:25:21;12.80;1.00
816;DHT22;25928;51.062;13.752;2022-12-31T05:27:47;12.90;1.00
816;DHT22;25928;51.062;13.752;2022-12-31T05:30:13;13.00;1.00
816;DHT22;25928;51.062;13.752;2022-12-31T05:32:39;13.00;1.00
816;DHT22;25928;51.062;13.752;2022-12-31T05:35:05;12.90;1.00
816;DHT22;25928;51.062;13.752;2022-12-31T05:37:31;13.10;1.00
816;DHT22;25928;51.062;13.752;2022-12-31T05:39:57;13.00;1.00
816;DHT22;25928;51.062;13.752;2022-12-31T05:42:23;13.00;1.00
816;DHT22;25928;51.062;13.752;2022-12-31T05:44:49;12.90;1.00
816;DHT22;25928;51.062;13.752;2022-12-31T05:47:16;13.20;1.00
816;DHT22;25928;51.062;13.752;2022-12-31T05:49:41;13.30;1.00
816;DHT22;25928;51.062;13.752;2022-12-31T05:52:07;13.50;1.00
816;DHT22;25928;51.062;13.752;2022-12-31T05:54:33;13.90;1.00
816;DHT22;25928;51.062;13.752;2022-12-31T05:56:59;14.00;1.00
816;DHT22;25928;51.062;13.752;2022-12-31T05:59:24;14.50;1.00
816;DHT22;25928;51.062;13.752;2022-12-31T06:01:50;14.70;1.00
816;DHT22;25928;51.062;13.752;2022-12-31T06:04:16;15.40;1.00
816;DHT22;25928;51.062;13.752;2022-12-31T06:06:42;15.00;1.00
816;DHT22;25928;51.062;13.752;2022-12-31T06:09:07;15.10;1.00
816;DHT22;25928;51.062;13.752;2022-12-31T06:11:33;15.30;1.00
816;DHT22;25928;51.062;13.752;2022-12-31T06:13:59;15.10;1.00
816;DHT22;25928;51.062;13.752;2022-12-31T06:16:25;14.90;1.00
816;DHT22;25928;51.062;13.752;2022-12-31T06:18:51;15.00;1.00
816;DHT22;25928;51.062;13.752;2022-12-31T06:21:18;15.10;1.00
816;DHT22;25928;51.062;13.752;2022-12-31T06:23:45;15.10;1.00
816;DHT22;25928;51.062;13.752;2022-12-31T06:26:10;15.20;1.00
816;DHT22;25928;51.062;13.752;2022-12-31T06:28:36;15.10;1.00
816;DHT22;25928;51.062;13.752;2022-12-31T06:31:03;15.00;1.00
816;DHT22;25928;51.062;13.752;2022-12-31T06:33:30;14.90;1.00
816;DHT22;25928;51.062;13.752;2022-12-31T06:35:57;14.90;1.00
816;DHT22;25928;51.062;13.752;2022-12-31T06:38:27;14.80;1.00
816;DHT22;25928;51.062;13.752;2022-12-31T06:40:53;14.80;1.00
816;DHT22;25928;51.062;13.752;2022-12-31T06:43:19;15.00;1.00
816;DHT22;25928;51.062;13.752;2022-12-31T06:45:45;15.20;1.00
816;DHT22;25928;51.062;13.752;2022-12-31T06:48:10;15.20;1.00
816;DHT22;25928;51.062;13.752;2022-12-31T06:50:36;15.00;1.00
816;DHT22;25928;51.062;13.752;2022-12-31T06:53:02;14.90;1.00
816;DHT22;25928;51.062;13.752;2022-12-31T06:55:28;14.90;1.00
816;DHT22;25928;51.062;13.752;2022-12-31T06:57:53;15.00;1.00
816;DHT22;25928;51.062;13.752;2022-12-31T07:00:20;14.80;1.00
816;DHT22;25928;51.062;13.752;2022-12-31T07:08:40;15.20;1.00
816;DHT22;25928;51.062;13.752;2022-12-31T07:11:22;15.50;1.00
816;DHT22;25928;51.062;13.752;2022-12-31T07:21:41;15.60;1.00
816;DHT22;25928;51.062;13.752;2022-12-31T07:24:09;15.60;1.00
816;DHT22;25928;51.062;13.752;2022-12-31T07:26:58;15.60;1.00
816;DHT22;25928;51.062;13.752;2022-12-31T07:35:43;15.60;1.00
816;DHT22;25928;51.062;13.752;2022-12-31T07:44:00;15.60;1.00
816;DHT22;25928;51.062;13.752;2022-12-31T07:46:56;15.80;1.00
816;DHT22;25928;51.062;13.752;2022-12-31T07:49:23;15.60;1.00
816;DHT22;25928;51.062;13.752;2022-12-31T07:51:49;15.80;1.00
816;DHT22;25928;51.062;13.752;2022-12-31T07:54:15;15.90;1.00
816;DHT22;25928;51.062;13.752;2022-12-31T07:56:42;15.90;1.00
816;DHT22;25928;51.062;13.752;2022-12-31T08:02:21;15.90;1.00
816;DHT22;25928;51.062;13.752;2022-12-31T08:05:17;16.00;1.00
816;DHT22;25928;51.062;13.752;2022-12-31T08:13:02;16.20;1.00
816;DHT22;25928;51.062;13.752;2022-12-31T08:15:28;16.40;1.00
816;DHT22;25928;51.062;13.752;2022-12-31T08:17:54;16.50;1.00
816;DHT22;25928;51.062;13.752;2022-12-31T08:20:20;16.60;1.00
816;DHT22;25928;51.062;13.752;2022-12-31T08:29:00;16.90;1.00
816;DHT22;25928;51.062;13.752;2022-12-31T08:31:49;17.10;1.00
816;DHT22;25928;51.062;13.752;2022-12-31T08:37:12;17.30;1.00
816;DHT22;25928;51.062;13.752;2022-12-31T08:44:58;17.40;1.00
816;DHT22;25928;51.062;13.752;2022-12-31T08:50:16;17.60;1.00
816;DHT22;25928;51.062;13.752;2022-12-31T08:52:43;17.60;1.00
816;DHT22;25928;51.062;13.752;2022-12-31T08:55:16;17.60;1.00
816;DHT22;25928;51.062;13.752;2022-12-31T09:00:46;17.70;1.00
816;DHT22;25928;51.062;13.752;2022-12-31T09:06:09;17.60;1.00
816;DHT22;25928;51.062;13.752;2022-12-31T09:09:16;17.70;1.00
816;DHT22;25928;51.062;13.752;2022-12-31T09:12:03;17.70;1.00
816;DHT22;25928;51.062;13.752;2022-12-31T09:19:55;18.00;1.00
816;DHT22;25928;51.062;13.752;2022-12-31T09:22:21;18.10;1.00
816;DHT22;25928;51.062;13.752;2022-12-31T09:24:47;18.20;1.00
816;DHT22;25928;51.062;13.752;2022-12-31T09:27:14;18.30;1.00
816;DHT22;25928;51.062;13.752;2022-12-31T09:37:48;18.30;1.00
816;DHT22;25928;51.062;13.752;2022-12-31T09:49:17;18.50;1.00
816;DHT22;25928;51.062;13.752;2022-12-31T10:00:30;18.50;1.00
816;DHT22;25928;51.062;13.752;2022-12-31T10:08:37;18.50;1.00
816;DHT22;25928;51.062;13.752;2022-12-31T10:22:27;18.60;1.00
816;DHT22;25928;51.062;13.752;2022-12-31T10:27:56;18.70;1.00
816;DHT22;25928;51.062;13.752;2022-12-31T10:30:26;18.70;1.00
816;DHT22;25928;51.062;13.752;2022-12-31T10:35:49;18.80;1.00
816;DHT22;25928;51.062;13.752;2022-12-31T10:41:06;18.90;1.00
816;DHT22;25928;51.062;13.752;2022-12-31T10:55:42;18.90;1.00
816;DHT22;25928;51.062;13.752;2022-12-31T11:00:20;19.00;1.00
816;DHT22;25928;51.062;13.752;2022-12-31T11:17:18;19.10;1.00
816;DHT22;25928;51.062;13.752;2022-12-31T11:31:25;19.00;1.00
816;DHT22;25928;51.062;13.752;2022-12-31T11:51:03;19.20;1.00
816;DHT22;25928;51.062;13.752;2022-12-31T11:56:08;19.30;1.00
816;DHT22;25928;51.062;13.752;2022-12-31T11:58:37;19.30;1.00
816;DHT22;25928;51.062;13.752;2022-12-31T12:03:28;19.40;1.00
816;DHT22;25928;51.062;13.752;2022-12-31T12:05:56;19.30;1.00
816;DHT22;25928;51.062;13.752;2022-12-31T12:08:24;19.40;1.00
816;DHT22;25928;51.062;13.752;2022-12-31T12:11:04;19.40;1.00
816;DHT22;25928;51.062;13.752;2022-12-31T12:13:32;19.40;1.00
816;DHT22;25928;51.062;13.752;2022-12-31T12:15:59;19.40;1.00
816;DHT22;25928;51.062;13.752;2022-12-31T12:18:35;19.50;1.00
816;DHT22;25928;51.062;13.752;2022-12-31T12:24:01;19.80;1.00
816;DHT22;25928;51.062;13.752;2022-12-31T12:26:41;19.90;1.00
816;DHT22;25928;51.062;13.752;2022-12-31T12:31:39;20.00;1.00
816;DHT22;25928;51.062;13.752;2022-12-31T12:34:05;20.00;1.00
816;DHT22;25928;51.062;13.752;2022-12-31T12:36:45;20.00;1.00
816;DHT22;25928;51.062;13.752;2022-12-31T12:39:22;19.90;1.00
816;DHT22;25928;51.062;13.752;2022-12-31T12:42:09;20.00;1.00
816;DHT22;25928;51.062;13.752;2022-12-31T12:44:37;20.10;1.00
816;DHT22;25928;51.062;13.752;2022-12-31T12:47:05;20.10;1.00
816;DHT22;25928;51.062;13.752;2022-12-31T12:49:37;20.20;1.00
816;DHT22;25928;51.062;13.752;2022-12-31T13:08:07;20.10;1.00
816;DHT22;25928;51.062;13.752;2022-12-31T13:29:28;19.80;1.00
816;DHT22;25928;51.062;13.752;2022-12-31T13:31:56;19.70;1.00
816;DHT22;25928;51.062;13.752;2022-12-31T13:34:28;19.60;1.00
816;DHT22;25928;51.062;13.752;2022-12-31T13:36:57;19.60;1.00
816;DHT22;25928;51.062;13.752;2022-12-31T13:39:27;19.60;1.00
816;DHT22;25928;51.062;13.752;2022-12-31T13:42:10;19.60;1.00
816;DHT22;25928;51.062;13.752;2022-12-31T13:44:48;19.60;1.00
816;DHT22;25928;51.062;13.752;2022-12-31T13:47:38;19.50;1.00
816;DHT22;25928;51.062;13.752;2022-12-31T13:50:23;19.50;1.00
816;DHT22;25928;51.062;13.752;2022-12-31T13:52:52;19.50;1.00
816;DHT22;25928;51.062;13.752;2022-12-31T13:55:43;19.50;1.00
816;DHT22;25928;51.062;13.752;2022-12-31T14:00:52;19.40;1.00
816;DHT22;25928;51.062;13.752;2022-12-31T14:03:31;19.40;1.00
816;DHT22;25928;51.062;13.752;2022-12-31T14:06:21;19.40;1.00
816;DHT22;25928;51.062;13.752;2022-12-31T14:08:51;19.20;1.00
816;DHT22;25928;51.062;13.752;2022-12-31T14:11:31;19.30;1.00
816;DHT22;25928;51.062;13.752;2022-12-31T14:14:04;19.40;1.00
816;DHT22;25928;51.062;13.752;2022-12-31T14:17:04;19.30;1.00
816;DHT22;25928;51.062;13.752;2022-12-31T14:22:25;19.20;1.00
816;DHT22;25928;51.062;13.752;2022-12-31T14:24:55;19.30;1.00
816;DHT22;25928;51.062;13.752;2022-12-31T14:27:30;19.30;1.00
816;DHT22;25928;51.062;13.752;2022-12-31T14:30:04;19.30;1.00
816;DHT22;25928;51.062;13.752;2022-12-31T14:51:41;19.10;1.00
816;DHT22;25928;51.062;13.752;2022-12-31T14:54:28;19.10;1.00
816;DHT22;25928;51.062;13.752;2022-12-31T14:57:24;19.10;1.00
816;DHT22;25928;51.062;13.752;2022-12-31T14:59:55;19.00;1.00
816;DHT22;25928;51.062;13.752;2022-12-31T15:02:31;19.00;1.00
816;DHT22;25928;51.062;13.752;2022-12-31T15:07:46;19.00;1.00
816;DHT22;25928;51.062;13.752;2022-12-31T15:16:16;18.90;1.00
816;DHT22;25928;51.062;13.752;2022-12-31T15:21:57;18.90;1.00
816;DHT22;25928;51.062;13.752;2022-12-31T15:24:25;18.90;1.00
816;DHT22;25928;51.062;13.752;2022-12-31T15:26:55;18.90;1.00
816;DHT22;25928;51.062;13.752;2022-12-31T15:29:30;18.90;1.00
816;DHT22;25928;51.062;13.752;2022-12-31T15:31:59;18.90;1.00
816;DHT22;25928;51.062;13.752;2022-12-31T15:34:31;18.90;1.00
816;DHT22;25928;51.062;13.752;2022-12-31T15:37:02;18.90;1.00
816;DHT22;25928;51.062;13.752;2022-12-31T15:41:58;18.90;1.00
816;DHT22;25928;51.062;13.752;2022-12-31T15:44:47;18.80;1.00
816;DHT22;25928;51.062;13.752;2022-12-31T15:47:24;18.80;1.00
816;DHT22;25928;51.062;13.752;2022-12-31T15:49:52;18.50;1.00
816;DHT22;25928;51.062;13.752;2022-12-31T15:52:25;18.40;1.00
816;DHT22;25928;51.062;13.752;2022-12-31T15:54:56;18.30;1.00
816;DHT22;25928;51.062;13.752;2022-12-31T15:57:30;18.40;1.00
816;DHT22;25928;51.062;13.752;2022-12-31T16:00:04;18.50;1.00
816;DHT22;25928;51.062;13.752;2022-12-31T16:02:30;18.50;1.00
816;DHT22;25928;51.062;13.752;2022-12-31T16:04:56;18.30;1.00
816;DHT22;25928;51.062;13.752;2022-12-31T16:07:23;18.20;1.00
816;DHT22;25928;51.062;13.752;2022-12-31T16:09:52;18.30;1.00
816;DHT22;25928;51.062;13.752;2022-12-31T16:12:21;18.30;1.00
816;DHT22;25928;51.062;13.752;2022-12-31T16:14:58;18.10;1.00
816;DHT22;25928;51.062;13.752;2022-12-31T16:19:53;18.10;1.00
816;DHT22;25928;51.062;13.752;2022-12-31T16:24:58;17.90;1.00
816;DHT22;25928;51.062;13.752;2022-12-31T16:27:25;17.90;1.00
816;DHT22;25928;51.062;13.752;2022-12-31T16:32:34;17.90;1.00
816;DHT22;25928;51.062;13.752;2022-12-31T16:35:01;17.90;1.00
816;DHT22;25928;51.062;13.752;2022-12-31T16:37:27;17.90;1.00
816;DHT22;25928;51.062;13.752;2022-12-31T16:42:27;17.80;1.00
816;DHT22;25928;51.062;13.752;2022-12-31T16:44:55;17.70;1.00
816;DHT22;25928;51.062;13.752;2022-12-31T16:47:36;17.60;1.00
816;DHT22;25928;51.062;13.752;2022-12-31T16:50:17;17.80;1.00
816;DHT22;25928;51.062;13.752;2022-12-31T16:52:47;18.10;1.00
816;DHT22;25928;51.062;13.752;2022-12-31T16:55:19;18.20;1.00
816;DHT22;25928;51.062;13.752;2022-12-31T16:57:49;18.20;1.00
816;DHT22;25928;51.062;13.752;2022-12-31T17:00:20;18.20;1.00
816;DHT22;25928;51.062;13.752;2022-12-31T17:07:43;18.40;1.00
816;DHT22;25928;51.062;13.752;2022-12-31T17:10:22;18.30;1.00
816;DHT22;25928;51.062;13.752;2022-12-31T17:12:56;18.40;1.00
816;DHT22;25928;51.062;13.752;2022-12-31T17:15:29;18.40;1.00
816;DHT22;25928;51.062;13.752;2022-12-31T17:18:02;18.40;1.00
816;DHT22;25928;51.062;13.752;2022-12-31T17:20:30;18.30;1.00
816;DHT22;25928;51.062;13.752;2022-12-31T17:23:04;18.20;1.00
816;DHT22;25928;51.062;13.752;2022-12-31T17:25:32;18.30;1.00
816;DHT22;25928;51.062;13.752;2022-12-31T17:35:38;18.40;1.00
816;DHT22;25928;51.062;13.752;2022-12-31T17:43:26;18.60;1.00
816;DHT22;25928;51.062;13.752;2022-12-31T17:45:52;18.60;1.00
816;DHT22;25928;51.062;13.752;2022-12-31T17:48:19;18.60;1.00
816;DHT22;25928;51.062;13.752;2022-12-31T17:50:49;18.60;1.00
816;DHT22;25928;51.062;13.752;2022-12-31T17:53:16;18.70;1.00
816;DHT22;25928;51.062;13.752;2022-12-31T17:55:44;18.60;1.00
816;DHT22;25928;51.062;13.752;2022-12-31T17:58:22;18.70;1.00
816;DHT22;25928;51.062;13.752;2022-12-31T18:00:51;18.60;1.00
816;DHT22;25928;51.062;13.752;2022-12-31T18:03:17;18.60;1.00
816;DHT22;25928;51.062;13.752;2022-12-31T18:05:42;18.50;1.00
816;DHT22;25928;51.062;13.752;2022-12-31T18:08:08;18.40;1.00
816;DHT22;25928;51.062;13.752;2022-12-31T18:10:36;18.30;1.00
816;DHT22;25928;51.062;13.752;2022-12-31T18:13:03;18.30;1.00
816;DHT22;25928;51.062;13.752;2022-12-31T18:15:30;18.30;1.00
816;DHT22;25928;51.062;13.752;2022-12-31T18:17:55;18.20;1.00
816;DHT22;25928;51.062;13.752;2022-12-31T18:20:22;18.20;1.00
816;DHT22;25928;51.062;13.752;2022-12-31T18:22:49;18.10;1.00
816;DHT22;25928;51.062;13.752;2022-12-31T18:25:22;18.10;1.00
816;DHT22;25928;51.062;13.752;2022-12-31T18:27:50;18.00;1.00
816;DHT22;25928;51.062;13.752;2022-12-31T18:30:17;17.90;1.00
816;DHT22;25928;51.062;13.752;2022-12-31T18:32:43;17.90;1.00
816;DHT22;25928;51.062;13.752;2022-12-31T18:35:19;18.00;1.00
816;DHT22;25928;51.062;13.752;2022-12-31T18:37:45;17.90;1.00
816;DHT22;25928;51.062;13.752;2022-12-31T18:40:11;18.00;1.00
816;DHT22;25928;51.062;13.752;2022-12-31T18:42:37;17.90;1.00
816;DHT22;25928;51.062;13.752;2022-12-31T18:45:14;17.80;1.00
816;DHT22;25928;51.062;13.752;2022-12-31T18:47:40;17.90;1.00
816;DHT22;25928;51.062;13.752;2022-12-31T18:50:06;17.70;1.00
816;DHT22;25928;51.062;13.752;2022-12-31T18:52:32;17.80;1.00
816;DHT22;25928;51.062;13.752;2022-12-31T18:54:58;17.80;1.00
816;DHT22;25928;51.062;13.752;2022-12-31T18:57:23;17.70;1.00
816;DHT22;25928;51.062;13.752;2022-12-31T18:59:49;17.60;1.00
816;DHT22;25928;51.062;13.752;2022-12-31T19:02:17;17.50;1.00
816;DHT22;25928;51.062;13.752;2022-12-31T19:04:43;17.50;1.00
816;DHT22;25928;51.062;13.752;2022-12-31T19:07:09;17.40;1.00
816;DHT22;25928;51.062;13.752;2022-12-31T19:09:34;17.50;1.00
816;DHT22;25928;51.062;13.752;2022-12-31T19:12:00;17.40;1.00
816;DHT22;25928;51.062;13.752;2022-12-31T19:14:26;17.30;1.00
816;DHT22;25928;51.062;13.752;2022-12-31T19:16:53;17.30;1.00
816;DHT22;25928;51.062;13.752;2022-12-31T19:19:20;17.30;1.00
816;DHT22;25928;51.062;13.752;2022-12-31T19:21:46;17.20;1.00
816;DHT22;25928;51.062;13.752;2022-12-31T19:24:23;17.20;1.00
816;DHT22;25928;51.062;13.752;2022-12-31T19:26:51;17.20;1.00
816;DHT22;25928;51.062;13.752;2022-12-31T19:29:19;17.20;1.00
816;DHT22;25928;51.062;13.752;2022-12-31T19:31:45;17.20;1.00
816;DHT22;25928;51.062;13.752;2022-12-31T19:34:10;17.10;1.00
816;DHT22;25928;51.062;13.752;2022-12-31T19:36:37;17.20;1.00
816;DHT22;25928;51.062;13.752;2022-12-31T19:39:04;17.20;1.00
816;DHT22;25928;51.062;13.752;2022-12-31T19:41:31;17.20;1.00
816;DHT22;25928;51.062;13.752;2022-12-31T19:43:57;17.00;1.00
816;DHT22;25928;51.062;13.752;2022-12-31T19:46:23;17.00;1.00
816;DHT22;25928;51.062;13.752;2022-12-31T19:48:50;17.00;1.00
816;DHT22;25928;51.062;13.752;2022-12-31T19:51:17;16.90;1.00
816;DHT22;25928;51.062;13.752;2022-12-31T19:53:44;17.00;1.00
816;DHT22;25928;51.062;13.752;2022-12-31T19:56:15;17.00;1.00
816;DHT22;25928;51.062;13.752;2022-12-31T19:58:42;17.20;1.00
816;DHT22;25928;51.062;13.752;2022-12-31T20:01:11;17.20;1.00
816;DHT22;25928;51.062;13.752;2022-12-31T20:03:40;17.30;1.00
816;DHT22;25928;51.062;13.752;2022-12-31T20:06:08;17.40;1.00
816;DHT22;25928;51.062;13.752;2022-12-31T20:08:36;17.40;1.00
816;DHT22;25928;51.062;13.752;2022-12-31T20:11:15;17.50;1.00
816;DHT22;25928;51.062;13.752;2022-12-31T20:13:41;17.50;1.00
816;DHT22;25928;51.062;13.752;2022-12-31T20:16:09;17.40;1.00
816;DHT22;25928;51.062;13.752;2022-12-31T20:18:36;17.30;1.00
816;DHT22;25928;51.062;13.752;2022-12-31T20:21:02;17.30;1.00
816;DHT22;25928;51.062;13.752;2022-12-31T20:23:31;17.30;1.00
816;DHT22;25928;51.062;13.752;2022-12-31T20:25:57;17.40;1.00
816;DHT22;25928;51.062;13.752;2022-12-31T20:28:23;17.80;1.00
816;DHT22;25928;51.062;13.752;2022-12-31T20:30:49;17.90;1.00
816;DHT22;25928;51.062;13.752;2022-12-31T20:33:15;18.00;1.00
816;DHT22;25928;51.062;13.752;2022-12-31T20:35:40;17.90;1.00
816;DHT22;25928;51.062;13.752;2022-12-31T20:38:06;17.90;1.00
816;DHT22;25928;51.062;13.752;2022-12-31T20:40:32;18.10;1.00
816;DHT22;25928;51.062;13.752;2022-12-31T20:42:58;18.10;1.00
816;DHT22;25928;51.062;13.752;2022-12-31T20:45:23;18.00;1.00
816;DHT22;25928;51.062;13.752;2022-12-31T20:47:50;18.10;1.00
816;DHT22;25928;51.062;13.752;2022-12-31T20:50:15;18.20;1.00
816;DHT22;25928;51.062;13.752;2022-12-31T20:52:42;18.30;1.00
816;DHT22;25928;51.062;13.752;2022-12-31T20:55:08;18.30;1.00
816;DHT22;25928;51.062;13.752;2022-12-31T20:57:34;18.30;1.00
816;DHT22;25928;51.062;13.752;2022-12-31T21:00:01;18.40;1.00
816;DHT22;25928;51.062;13.752;2022-12-31T21:02:26;18.40;1.00
816;DHT22;25928;51.062;13.752;2022-12-31T21:04:52;18.30;1.00
816;DHT22;25928;51.062;13.752;2022-12-31T21:07:17;18.20;1.00
816;DHT22;25928;51.062;13.752;2022-12-31T21:09:43;18.20;1.00
816;DHT22;25928;51.062;13.752;2022-12-31T21:12:12;18.20;1.00
816;DHT22;25928;51.062;13.752;2022-12-31T21:14:56;18.20;1.00
816;DHT22;25928;51.062;13.752;2022-12-31T21:17:22;18.20;1.00
816;DHT22;25928;51.062;13.752;2022-12-31T21:19:47;18.40;1.00
816;DHT22;25928;51.062;13.752;2022-12-31T21:22:13;18.40;1.00